sensor_id;sensor_type;location;lat;lon;timestamp;P1;durP1;ratioP1;P2;durP2;ratioP2
50591;SDS011;36548;50.506;30.834;2023-07-31T00:00:29;5.05;;;3.75;;
50591;SDS011;36548;50.506;30.834;2023-07-31T00:01:40;4.68;;;3.83;;
50591;SDS011;36548;50.506;30.834;2023-07-31T00:02:51;5.27;;;3.90;;
50591;SDS011;36548;50.506;30.834;2023-07-31T00:04:03;4.95;;;3.95;;
50591;SDS011;36548;50.506;30.834;2023-07-31T00:05:14;4.75;;;3.50;;
50591;SDS011;36548;50.506;30.834;2023-07-31T00:06:30;5.00;;;3.73;;
50591;SDS011;36548;50.506;30.834;2023-07-31T00:07:40;4.90;;;3.80;;
50591;SDS011;36548;50.506;30.834;2023-07-31T00:08:50;5.15;;;3.50;;
50591;SDS011;36548;50.506;30.834;2023-07-31T00:10:06;4.50;;;4.10;;
50591;SDS011;36548;50.506;30.834;2023-07-31T00:11:16;5.85;;;4.35;;
50591;SDS011;36548;50.506;30.834;2023-07-31T00:12:32;4.43;;;4.00;;
50591;SDS011;36548;50.506;30.834;2023-07-31T00:13:42;4.60;;;4.20;;
50591;SDS011;36548;50.506;30.834;2023-07-31T00:14:57;5.80;;;3.95;;
50591;SDS011;36548;50.506;30.834;2023-07-31T00:16:06;4.53;;;4.13;;
50591;SDS011;36548;50.506;30.834;2023-07-31T00:17:23;4.40;;;4.00;;
50591;SDS011;36548;50.506;30.834;2023-07-31T00:18:32;5.03;;;4.13;;
50591;SDS011;36548;50.506;30.834;2023-07-31T00:19:42;4.00;;;3.60;;
50591;SDS011;36548;50.506;30.834;2023-07-31T00:20:57;3.80;;;3.48;;
50591;SDS011;36548;50.506;30.834;2023-07-31T00:22:06;5.50;;;3.95;;
50591;SDS011;36548;50.506;30.834;2023-07-31T00:23:16;3.97;;;3.35;;
50591;SDS011;36548;50.506;30.834;2023-07-31T00:24:27;3.62;;;3.32;;
50591;SDS011;36548;50.506;30.834;2023-07-31T00:25:36;6.87;;;3.38;;
50591;SDS011;36548;50.506;30.834;2023-07-31T00:26:47;4.05;;;3.75;;
50591;SDS011;36548;50.506;30.834;2023-07-31T00:28:03;4.67;;;3.43;;
50591;SDS011;36548;50.506;30.834;2023-07-31T00:29:13;4.75;;;3.45;;
50591;SDS011;36548;50.506;30.834;2023-07-31T00:30:23;3.40;;;3.10;;
50591;SDS011;36548;50.506;30.834;2023-07-31T00:31:35;3.38;;;3.10;;
50591;SDS011;36548;50.506;30.834;2023-07-31T00:32:44;4.18;;;3.63;;
50591;SDS011;36548;50.506;30.834;2023-07-31T00:33:54;3.85;;;3.50;;
50591;SDS011;36548;50.506;30.834;2023-07-31T00:35:06;3.60;;;3.25;;
50591;SDS011;36548;50.506;30.834;2023-07-31T00:36:17;5.18;;;2.88;;
50591;SDS011;36548;50.506;30.834;2023-07-31T00:37:27;3.26;;;2.98;;
50591;SDS011;36548;50.506;30.834;2023-07-31T00:38:43;3.52;;;3.05;;
50591;SDS011;36548;50.506;30.834;2023-07-31T00:39:53;3.35;;;3.00;;
50591;SDS011;36548;50.506;30.834;2023-07-31T00:41:08;3.68;;;3.37;;
50591;SDS011;36548;50.506;30.834;2023-07-31T00:42:18;4.05;;;3.55;;
50591;SDS011;36548;50.506;30.834;2023-07-31T00:43:30;4.05;;;3.20;;
50591;SDS011;36548;50.506;30.834;2023-07-31T00:44:47;3.68;;;3.07;;
50591;SDS011;36548;50.506;30.834;2023-07-31T00:45:56;3.15;;;2.85;;
50591;SDS011;36548;50.506;30.834;2023-07-31T00:47:32;3.30;;;2.98;;
50591;SDS011;36548;50.506;30.834;2023-07-31T00:48:42;3.35;;;2.50;;
50591;SDS011;36548;50.506;30.834;2023-07-31T00:49:58;2.57;;;2.37;;
50591;SDS011;36548;50.506;30.834;2023-07-31T00:51:09;3.20;;;2.50;;
50591;SDS011;36548;50.506;30.834;2023-07-31T00:52:20;3.55;;;2.45;;
50591;SDS011;36548;50.506;30.834;2023-07-31T00:53:36;5.25;;;2.40;;
50591;SDS011;36548;50.506;30.834;2023-07-31T00:54:45;3.20;;;2.20;;
50591;SDS011;36548;50.506;30.834;2023-07-31T00:56:01;3.57;;;2.67;;
50591;SDS011;36548;50.506;30.834;2023-07-31T00:58:28;3.18;;;2.98;;
50591;SDS011;36548;50.506;30.834;2023-07-31T00:59:38;3.00;;;2.70;;
50591;SDS011;36548;50.506;30.834;2023-07-31T01:00:54;3.23;;;2.57;;
50591;SDS011;36548;50.506;30.834;2023-07-31T01:02:08;3.05;;;2.70;;
50591;SDS011;36548;50.506;30.834;2023-07-31T01:03:23;3.33;;;2.95;;
50591;SDS011;36548;50.506;30.834;2023-07-31T01:04:33;3.25;;;2.95;;
50591;SDS011;36548;50.506;30.834;2023-07-31T01:05:48;4.12;;;2.85;;
50591;SDS011;36548;50.506;30.834;2023-07-31T01:07:11;3.98;;;2.83;;
50591;SDS011;36548;50.506;30.834;2023-07-31T01:09:53;3.50;;;3.20;;
50591;SDS011;36548;50.506;30.834;2023-07-31T01:11:38;3.37;;;2.87;;
50591;SDS011;36548;50.506;30.834;2023-07-31T01:12:47;3.60;;;2.58;;
50591;SDS011;36548;50.506;30.834;2023-07-31T01:14:00;3.55;;;2.60;;
50591;SDS011;36548;50.506;30.834;2023-07-31T01:15:09;3.05;;;2.80;;
50591;SDS011;36548;50.506;30.834;2023-07-31T01:16:23;2.62;;;2.42;;
50591;SDS011;36548;50.506;30.834;2023-07-31T01:17:41;2.42;;;2.13;;
50591;SDS011;36548;50.506;30.834;2023-07-31T01:18:52;2.35;;;2.15;;
50591;SDS011;36548;50.506;30.834;2023-07-31T01:24:33;5.60;;;2.95;;
50591;SDS011;36548;50.506;30.834;2023-07-31T01:27:17;3.73;;;3.30;;
50591;SDS011;36548;50.506;30.834;2023-07-31T01:30:16;3.53;;;3.00;;
50591;SDS011;36548;50.506;30.834;2023-07-31T01:31:29;5.72;;;3.22;;
50591;SDS011;36548;50.506;30.834;2023-07-31T01:32:43;3.80;;;3.05;;
50591;SDS011;36548;50.506;30.834;2023-07-31T02:25:46;5.67;;;5.02;;
50591;SDS011;36548;50.506;30.834;2023-07-31T02:26:56;5.97;;;5.37;;
50591;SDS011;36548;50.506;30.834;2023-07-31T02:28:12;6.67;;;5.97;;
50591;SDS011;36548;50.506;30.834;2023-07-31T02:29:21;6.38;;;5.62;;
50591;SDS011;36548;50.506;30.834;2023-07-31T02:30:30;6.48;;;5.90;;
50591;SDS011;36548;50.506;30.834;2023-07-31T02:31:46;6.28;;;5.67;;
50591;SDS011;36548;50.506;30.834;2023-07-31T02:32:57;6.08;;;5.48;;
50591;SDS011;36548;50.506;30.834;2023-07-31T02:34:08;8.73;;;6.05;;
50591;SDS011;36548;50.506;30.834;2023-07-31T02:35:18;5.78;;;5.28;;
50591;SDS011;36548;50.506;30.834;2023-07-31T02:36:45;6.03;;;5.45;;
50591;SDS011;36548;50.506;30.834;2023-07-31T02:37:56;6.20;;;5.53;;
50591;SDS011;36548;50.506;30.834;2023-07-31T02:39:11;6.65;;;5.78;;
50591;SDS011;36548;50.506;30.834;2023-07-31T02:40:20;6.10;;;5.33;;
50591;SDS011;36548;50.506;30.834;2023-07-31T02:41:36;5.80;;;5.30;;
50591;SDS011;36548;50.506;30.834;2023-07-31T02:42:45;7.00;;;6.27;;
50591;SDS011;36548;50.506;30.834;2023-07-31T02:44:01;6.30;;;5.72;;
50591;SDS011;36548;50.506;30.834;2023-07-31T02:45:10;6.60;;;5.98;;
50591;SDS011;36548;50.506;30.834;2023-07-31T02:46:25;6.20;;;5.63;;
50591;SDS011;36548;50.506;30.834;2023-07-31T02:47:36;5.78;;;5.28;;
50591;SDS011;36548;50.506;30.834;2023-07-31T02:48:52;6.08;;;5.48;;
50591;SDS011;36548;50.506;30.834;2023-07-31T02:50:03;5.30;;;4.90;;
50591;SDS011;36548;50.506;30.834;2023-07-31T02:51:20;6.40;;;5.80;;
50591;SDS011;36548;50.506;30.834;2023-07-31T02:52:29;6.43;;;5.88;;
50591;SDS011;36548;50.506;30.834;2023-07-31T02:53:45;5.95;;;5.35;;
50591;SDS011;36548;50.506;30.834;2023-07-31T02:54:55;6.37;;;5.17;;
50591;SDS011;36548;50.506;30.834;2023-07-31T02:56:11;5.73;;;5.23;;
50591;SDS011;36548;50.506;30.834;2023-07-31T02:57:20;7.02;;;5.25;;
50591;SDS011;36548;50.506;30.834;2023-07-31T02:58:36;6.52;;;5.70;;
50591;SDS011;36548;50.506;30.834;2023-07-31T02:59:46;7.00;;;5.40;;
50591;SDS011;36548;50.506;30.834;2023-07-31T03:01:01;5.60;;;5.10;;
50591;SDS011;36548;50.506;30.834;2023-07-31T03:02:11;6.67;;;5.43;;
50591;SDS011;36548;50.506;30.834;2023-07-31T03:03:29;5.35;;;4.85;;
50591;SDS011;36548;50.506;30.834;2023-07-31T03:04:39;5.60;;;5.10;;
50591;SDS011;36548;50.506;30.834;2023-07-31T03:05:54;5.90;;;5.30;;
50591;SDS011;36548;50.506;30.834;2023-07-31T03:07:05;6.95;;;5.40;;
50591;SDS011;36548;50.506;30.834;2023-07-31T03:08:20;5.50;;;4.95;;
50591;SDS011;36548;50.506;30.834;2023-07-31T03:09:31;5.48;;;4.93;;
50591;SDS011;36548;50.506;30.834;2023-07-31T03:10:47;5.60;;;5.10;;
50591;SDS011;36548;50.506;30.834;2023-07-31T03:11:56;6.02;;;5.47;;
50591;SDS011;36548;50.506;30.834;2023-07-31T03:13:13;6.18;;;5.58;;
50591;SDS011;36548;50.506;30.834;2023-07-31T03:14:22;5.42;;;4.93;;
50591;SDS011;36548;50.506;30.834;2023-07-31T03:15:41;5.18;;;4.65;;
50591;SDS011;36548;50.506;30.834;2023-07-31T03:16:52;5.30;;;4.80;;
50591;SDS011;36548;50.506;30.834;2023-07-31T03:18:07;5.12;;;4.63;;
50591;SDS011;36548;50.506;30.834;2023-07-31T03:19:18;5.62;;;5.12;;
50591;SDS011;36548;50.506;30.834;2023-07-31T03:20:27;5.13;;;4.63;;
50591;SDS011;36548;50.506;30.834;2023-07-31T03:21:37;5.70;;;4.85;;
50591;SDS011;36548;50.506;30.834;2023-07-31T03:23:04;5.18;;;4.57;;
50591;SDS011;36548;50.506;30.834;2023-07-31T03:24:14;5.45;;;4.95;;
50591;SDS011;36548;50.506;30.834;2023-07-31T03:25:29;6.37;;;4.53;;
50591;SDS011;36548;50.506;30.834;2023-07-31T03:26:39;4.70;;;4.15;;
50591;SDS011;36548;50.506;30.834;2023-07-31T03:27:50;4.87;;;4.38;;
50591;SDS011;36548;50.506;30.834;2023-07-31T03:29:06;4.47;;;4.07;;
50591;SDS011;36548;50.506;30.834;2023-07-31T03:30:16;5.55;;;4.72;;
50591;SDS011;36548;50.506;30.834;2023-07-31T03:31:32;5.38;;;4.75;;
50591;SDS011;36548;50.506;30.834;2023-07-31T03:32:44;5.05;;;4.55;;
50591;SDS011;36548;50.506;30.834;2023-07-31T03:34:00;6.06;;;4.56;;
50591;SDS011;36548;50.506;30.834;2023-07-31T03:35:09;4.60;;;4.20;;
50591;SDS011;36548;50.506;30.834;2023-07-31T03:36:24;5.40;;;4.90;;
50591;SDS011;36548;50.506;30.834;2023-07-31T03:38:44;4.80;;;4.40;;
50591;SDS011;36548;50.506;30.834;2023-07-31T03:40:00;4.62;;;4.22;;
50591;SDS011;36548;50.506;30.834;2023-07-31T03:41:12;5.22;;;4.50;;
50591;SDS011;36548;50.506;30.834;2023-07-31T03:43:47;5.25;;;4.78;;
50591;SDS011;36548;50.506;30.834;2023-07-31T03:45:00;4.73;;;3.97;;
50591;SDS011;36548;50.506;30.834;2023-07-31T03:46:10;4.27;;;3.97;;
50591;SDS011;36548;50.506;30.834;2023-07-31T03:47:26;4.75;;;4.20;;
50591;SDS011;36548;50.506;30.834;2023-07-31T03:48:35;4.47;;;3.85;;
50591;SDS011;36548;50.506;30.834;2023-07-31T03:49:45;4.85;;;4.45;;
50591;SDS011;36548;50.506;30.834;2023-07-31T03:51:00;4.78;;;4.33;;
50591;SDS011;36548;50.506;30.834;2023-07-31T03:52:10;4.95;;;4.55;;
50591;SDS011;36548;50.506;30.834;2023-07-31T03:53:26;5.62;;;5.10;;
50591;SDS011;36548;50.506;30.834;2023-07-31T03:54:36;5.26;;;4.76;;
50591;SDS011;36548;50.506;30.834;2023-07-31T03:55:51;5.87;;;5.33;;
50591;SDS011;36548;50.506;30.834;2023-07-31T03:57:01;5.42;;;4.92;;
50591;SDS011;36548;50.506;30.834;2023-07-31T03:58:18;5.47;;;4.97;;
50591;SDS011;36548;50.506;30.834;2023-07-31T03:59:28;5.10;;;4.70;;
50591;SDS011;36548;50.506;30.834;2023-07-31T04:00:43;5.43;;;4.95;;
50591;SDS011;36548;50.506;30.834;2023-07-31T04:01:53;4.88;;;4.38;;
50591;SDS011;36548;50.506;30.834;2023-07-31T04:03:27;4.62;;;4.22;;
50591;SDS011;36548;50.506;30.834;2023-07-31T04:04:37;4.90;;;4.50;;
50591;SDS011;36548;50.506;30.834;2023-07-31T04:05:51;4.60;;;4.20;;
50591;SDS011;36548;50.506;30.834;2023-07-31T04:07:08;5.00;;;4.43;;
50591;SDS011;36548;50.506;30.834;2023-07-31T04:08:18;5.10;;;4.65;;
50591;SDS011;36548;50.506;30.834;2023-07-31T04:09:33;4.68;;;4.28;;
50591;SDS011;36548;50.506;30.834;2023-07-31T04:10:42;4.47;;;4.10;;
50591;SDS011;36548;50.506;30.834;2023-07-31T04:11:58;5.43;;;4.40;;
50591;SDS011;36548;50.506;30.834;2023-07-31T04:13:07;4.87;;;4.45;;
50591;SDS011;36548;50.506;30.834;2023-07-31T04:14:22;5.23;;;4.77;;
50591;SDS011;36548;50.506;30.834;2023-07-31T04:15:32;6.00;;;4.57;;
50591;SDS011;36548;50.506;30.834;2023-07-31T04:16:47;4.68;;;4.28;;
50591;SDS011;36548;50.506;30.834;2023-07-31T04:17:58;5.25;;;4.75;;
50591;SDS011;36548;50.506;30.834;2023-07-31T04:19:14;5.65;;;4.70;;
50591;SDS011;36548;50.506;30.834;2023-07-31T04:20:25;4.85;;;4.40;;
50591;SDS011;36548;50.506;30.834;2023-07-31T04:21:42;5.03;;;4.57;;
50591;SDS011;36548;50.506;30.834;2023-07-31T04:22:52;4.85;;;4.45;;
50591;SDS011;36548;50.506;30.834;2023-07-31T04:24:09;4.45;;;4.05;;
50591;SDS011;36548;50.506;30.834;2023-07-31T04:25:18;5.13;;;4.62;;
50591;SDS011;36548;50.506;30.834;2023-07-31T04:26:33;4.67;;;4.23;;
50591;SDS011;36548;50.506;30.834;2023-07-31T04:27:43;5.83;;;4.43;;
50591;SDS011;36548;50.506;30.834;2023-07-31T04:28:59;4.65;;;4.20;;
50591;SDS011;36548;50.506;30.834;2023-07-31T04:30:09;4.80;;;4.40;;
50591;SDS011;36548;50.506;30.834;2023-07-31T04:31:24;4.68;;;4.28;;
50591;SDS011;36548;50.506;30.834;2023-07-31T04:32:34;5.05;;;4.60;;
50591;SDS011;36548;50.506;30.834;2023-07-31T04:33:52;5.60;;;5.10;;
50591;SDS011;36548;50.506;30.834;2023-07-31T04:35:01;5.15;;;4.75;;
50591;SDS011;36548;50.506;30.834;2023-07-31T04:36:11;5.85;;;5.35;;
50591;SDS011;36548;50.506;30.834;2023-07-31T04:38:30;5.67;;;5.18;;
50591;SDS011;36548;50.506;30.834;2023-07-31T04:39:45;6.53;;;5.87;;
50591;SDS011;36548;50.506;30.834;2023-07-31T04:40:55;6.23;;;5.68;;
50591;SDS011;36548;50.506;30.834;2023-07-31T04:42:04;5.65;;;5.20;;
50591;SDS011;36548;50.506;30.834;2023-07-31T04:43:19;5.77;;;5.27;;
50591;SDS011;36548;50.506;30.834;2023-07-31T04:44:29;5.40;;;4.90;;
50591;SDS011;36548;50.506;30.834;2023-07-31T04:45:45;5.70;;;5.23;;
50591;SDS011;36548;50.506;30.834;2023-07-31T04:46:57;6.57;;;5.13;;
50591;SDS011;36548;50.506;30.834;2023-07-31T04:48:12;6.15;;;5.65;;
50591;SDS011;36548;50.506;30.834;2023-07-31T04:49:21;5.78;;;5.28;;
50591;SDS011;36548;50.506;30.834;2023-07-31T04:50:32;5.53;;;5.03;;
50591;SDS011;36548;50.506;30.834;2023-07-31T04:51:48;5.62;;;5.15;;
50591;SDS011;36548;50.506;30.834;2023-07-31T04:52:56;4.72;;;4.30;;
50591;SDS011;36548;50.506;30.834;2023-07-31T04:54:14;6.00;;;5.40;;
50591;SDS011;36548;50.506;30.834;2023-07-31T04:55:24;5.08;;;4.63;;
50591;SDS011;36548;50.506;30.834;2023-07-31T04:56:33;5.03;;;4.62;;
50591;SDS011;36548;50.506;30.834;2023-07-31T04:57:49;5.43;;;4.83;;
50591;SDS011;36548;50.506;30.834;2023-07-31T04:58:58;5.62;;;5.12;;
50591;SDS011;36548;50.506;30.834;2023-07-31T05:00:15;4.95;;;4.55;;
50591;SDS011;36548;50.506;30.834;2023-07-31T05:01:25;5.10;;;4.70;;
50591;SDS011;36548;50.506;30.834;2023-07-31T05:02:40;5.85;;;5.35;;
50591;SDS011;36548;50.506;30.834;2023-07-31T05:03:50;5.95;;;5.45;;
50591;SDS011;36548;50.506;30.834;2023-07-31T05:04:59;5.85;;;5.33;;
50591;SDS011;36548;50.506;30.834;2023-07-31T05:06:18;6.07;;;5.57;;
50591;SDS011;36548;50.506;30.834;2023-07-31T05:07:29;7.05;;;6.35;;
50591;SDS011;36548;50.506;30.834;2023-07-31T05:08:45;6.48;;;5.80;;
50591;SDS011;36548;50.506;30.834;2023-07-31T05:09:55;6.90;;;6.32;;
50591;SDS011;36548;50.506;30.834;2023-07-31T05:11:10;7.38;;;6.78;;
50591;SDS011;36548;50.506;30.834;2023-07-31T05:12:19;7.02;;;6.35;;
50591;SDS011;36548;50.506;30.834;2023-07-31T05:13:30;7.10;;;6.10;;
50591;SDS011;36548;50.506;30.834;2023-07-31T05:14:46;5.35;;;4.90;;
50591;SDS011;36548;50.506;30.834;2023-07-31T05:15:57;5.98;;;4.92;;
50591;SDS011;36548;50.506;30.834;2023-07-31T05:17:13;5.80;;;5.30;;
50591;SDS011;36548;50.506;30.834;2023-07-31T05:18:22;5.32;;;4.78;;
50591;SDS011;36548;50.506;30.834;2023-07-31T05:19:37;5.60;;;4.87;;
50591;SDS011;36548;50.506;30.834;2023-07-31T05:20:46;5.25;;;4.82;;
50591;SDS011;36548;50.506;30.834;2023-07-31T05:21:56;5.45;;;4.95;;
50591;SDS011;36548;50.506;30.834;2023-07-31T05:23:12;4.90;;;4.50;;
50591;SDS011;36548;50.506;30.834;2023-07-31T05:24:23;5.80;;;5.30;;
50591;SDS011;36548;50.506;30.834;2023-07-31T05:25:38;5.47;;;5.02;;
50591;SDS011;36548;50.506;30.834;2023-07-31T05:26:49;6.20;;;5.70;;
50591;SDS011;36548;50.506;30.834;2023-07-31T05:28:04;5.70;;;5.25;;
50591;SDS011;36548;50.506;30.834;2023-07-31T05:29:13;6.05;;;5.27;;
50591;SDS011;36548;50.506;30.834;2023-07-31T05:30:23;6.20;;;5.70;;
50591;SDS011;36548;50.506;30.834;2023-07-31T05:31:33;6.67;;;6.02;;
50591;SDS011;36548;50.506;30.834;2023-07-31T05:32:49;7.25;;;5.72;;
50591;SDS011;36548;50.506;30.834;2023-07-31T05:33:59;6.63;;;6.10;;
50591;SDS011;36548;50.506;30.834;2023-07-31T05:35:14;5.75;;;5.23;;
50591;SDS011;36548;50.506;30.834;2023-07-31T05:36:24;5.74;;;5.30;;
50591;SDS011;36548;50.506;30.834;2023-07-31T05:37:40;6.15;;;5.57;;
50591;SDS011;36548;50.506;30.834;2023-07-31T05:38:49;5.80;;;5.30;;
50591;SDS011;36548;50.506;30.834;2023-07-31T05:40:04;6.38;;;5.78;;
50591;SDS011;36548;50.506;30.834;2023-07-31T05:41:15;5.95;;;5.43;;
50591;SDS011;36548;50.506;30.834;2023-07-31T05:42:25;6.13;;;5.50;;
50591;SDS011;36548;50.506;30.834;2023-07-31T05:43:40;6.35;;;5.77;;
50591;SDS011;36548;50.506;30.834;2023-07-31T05:44:50;5.65;;;4.90;;
50591;SDS011;36548;50.506;30.834;2023-07-31T05:46:08;6.38;;;5.87;;
50591;SDS011;36548;50.506;30.834;2023-07-31T05:47:18;6.40;;;5.47;;
50591;SDS011;36548;50.506;30.834;2023-07-31T05:48:34;6.78;;;6.20;;
50591;SDS011;36548;50.506;30.834;2023-07-31T05:49:44;6.55;;;6.03;;
50591;SDS011;36548;50.506;30.834;2023-07-31T05:52:17;6.87;;;6.37;;
50591;SDS011;36548;50.506;30.834;2023-07-31T05:53:33;8.48;;;7.62;;
50591;SDS011;36548;50.506;30.834;2023-07-31T05:54:43;7.57;;;6.98;;
50591;SDS011;36548;50.506;30.834;2023-07-31T05:55:51;8.43;;;7.68;;
50591;SDS011;36548;50.506;30.834;2023-07-31T05:57:01;8.13;;;7.33;;
50591;SDS011;36548;50.506;30.834;2023-07-31T05:58:17;8.10;;;7.35;;
50591;SDS011;36548;50.506;30.834;2023-07-31T05:59:26;7.88;;;7.18;;
50591;SDS011;36548;50.506;30.834;2023-07-31T06:01:46;8.28;;;7.65;;
50591;SDS011;36548;50.506;30.834;2023-07-31T06:02:55;8.77;;;7.97;;
50591;SDS011;36548;50.506;30.834;2023-07-31T06:04:10;9.65;;;8.72;;
50591;SDS011;36548;50.506;30.834;2023-07-31T06:05:20;9.50;;;8.60;;
50591;SDS011;36548;50.506;30.834;2023-07-31T06:06:29;10.05;;;9.10;;
50591;SDS011;36548;50.506;30.834;2023-07-31T06:07:46;9.60;;;8.80;;
50591;SDS011;36548;50.506;30.834;2023-07-31T06:08:57;10.90;;;9.85;;
50591;SDS011;36548;50.506;30.834;2023-07-31T06:10:13;10.05;;;9.15;;
50591;SDS011;36548;50.506;30.834;2023-07-31T06:11:21;9.38;;;8.50;;
50591;SDS011;36548;50.506;30.834;2023-07-31T06:12:38;8.33;;;7.60;;
50591;SDS011;36548;50.506;30.834;2023-07-31T06:13:47;8.65;;;7.20;;
50591;SDS011;36548;50.506;30.834;2023-07-31T06:15:04;7.72;;;7.05;;
50591;SDS011;36548;50.506;30.834;2023-07-31T06:16:14;7.47;;;6.82;;
50591;SDS011;36548;50.506;30.834;2023-07-31T06:17:26;8.10;;;7.38;;
50591;SDS011;36548;50.506;30.834;2023-07-31T06:19:51;7.75;;;7.15;;
50591;SDS011;36548;50.506;30.834;2023-07-31T06:21:01;8.60;;;7.90;;
50591;SDS011;36548;50.506;30.834;2023-07-31T06:22:16;8.70;;;7.90;;
50591;SDS011;36548;50.506;30.834;2023-07-31T06:23:26;8.82;;;8.00;;
50591;SDS011;36548;50.506;30.834;2023-07-31T06:24:42;9.60;;;8.75;;
50591;SDS011;36548;50.506;30.834;2023-07-31T06:25:52;10.33;;;9.43;;
50591;SDS011;36548;50.506;30.834;2023-07-31T06:27:02;10.00;;;9.20;;
50591;SDS011;36548;50.506;30.834;2023-07-31T06:28:13;10.87;;;10.05;;
50591;SDS011;36548;50.506;30.834;2023-07-31T06:29:28;10.27;;;9.47;;
50591;SDS011;36548;50.506;30.834;2023-07-31T06:30:38;10.80;;;10.00;;
50591;SDS011;36548;50.506;30.834;2023-07-31T06:31:55;11.08;;;10.18;;
50591;SDS011;36548;50.506;30.834;2023-07-31T06:33:05;10.45;;;9.55;;
50591;SDS011;36548;50.506;30.834;2023-07-31T06:35:31;11.10;;;10.15;;
50591;SDS011;36548;50.506;30.834;2023-07-31T06:36:41;11.80;;;10.70;;
50591;SDS011;36548;50.506;30.834;2023-07-31T06:37:57;10.77;;;9.92;;
50591;SDS011;36548;50.506;30.834;2023-07-31T06:39:07;11.45;;;10.55;;
50591;SDS011;36548;50.506;30.834;2023-07-31T06:40:23;11.42;;;10.52;;
50591;SDS011;36548;50.506;30.834;2023-07-31T06:41:33;11.15;;;10.25;;
50591;SDS011;36548;50.506;30.834;2023-07-31T06:42:49;11.20;;;10.30;;
50591;SDS011;36548;50.506;30.834;2023-07-31T06:43:59;11.55;;;10.65;;
50591;SDS011;36548;50.506;30.834;2023-07-31T06:45:10;11.70;;;10.70;;
50591;SDS011;36548;50.506;30.834;2023-07-31T06:46:21;11.40;;;10.48;;
50591;SDS011;36548;50.506;30.834;2023-07-31T06:47:31;11.43;;;10.33;;
50591;SDS011;36548;50.506;30.834;2023-07-31T06:48:46;11.30;;;10.42;;
50591;SDS011;36548;50.506;30.834;2023-07-31T06:49:57;10.50;;;9.60;;
50591;SDS011;36548;50.506;30.834;2023-07-31T06:51:12;9.30;;;8.40;;
50591;SDS011;36548;50.506;30.834;2023-07-31T06:52:21;10.17;;;9.37;;
50591;SDS011;36548;50.506;30.834;2023-07-31T06:53:36;9.82;;;9.02;;
50591;SDS011;36548;50.506;30.834;2023-07-31T06:54:57;9.78;;;8.93;;
50591;SDS011;36548;50.506;30.834;2023-07-31T06:56:04;9.13;;;8.40;;
50591;SDS011;36548;50.506;30.834;2023-07-31T06:57:13;9.30;;;8.52;;
50591;SDS011;36548;50.506;30.834;2023-07-31T06:58:31;9.23;;;8.40;;
50591;SDS011;36548;50.506;30.834;2023-07-31T06:59:39;10.40;;;9.45;;
50591;SDS011;36548;50.506;30.834;2023-07-31T07:00:55;10.68;;;9.78;;
50591;SDS011;36548;50.506;30.834;2023-07-31T07:02:04;10.40;;;9.50;;
50591;SDS011;36548;50.506;30.834;2023-07-31T07:03:21;10.50;;;9.47;;
50591;SDS011;36548;50.506;30.834;2023-07-31T07:04:31;10.20;;;9.25;;
50591;SDS011;36548;50.506;30.834;2023-07-31T07:05:46;10.17;;;9.32;;
50591;SDS011;36548;50.506;30.834;2023-07-31T07:06:57;10.00;;;9.20;;
50591;SDS011;36548;50.506;30.834;2023-07-31T07:08:12;11.17;;;10.13;;
50591;SDS011;36548;50.506;30.834;2023-07-31T07:09:21;11.48;;;10.43;;
50591;SDS011;36548;50.506;30.834;2023-07-31T07:10:30;11.70;;;10.70;;
50591;SDS011;36548;50.506;30.834;2023-07-31T07:11:40;10.82;;;10.02;;
50591;SDS011;36548;50.506;30.834;2023-07-31T07:12:55;11.05;;;10.13;;
50591;SDS011;36548;50.506;30.834;2023-07-31T07:14:05;13.03;;;11.13;;
50591;SDS011;36548;50.506;30.834;2023-07-31T07:15:20;12.58;;;11.35;;
50591;SDS011;36548;50.506;30.834;2023-07-31T07:16:31;11.40;;;10.50;;
50591;SDS011;36548;50.506;30.834;2023-07-31T07:17:47;11.93;;;10.95;;
50591;SDS011;36548;50.506;30.834;2023-07-31T07:19:03;12.92;;;11.87;;
50591;SDS011;36548;50.506;30.834;2023-07-31T07:20:13;9.75;;;9.00;;
50591;SDS011;36548;50.506;30.834;2023-07-31T07:21:29;10.63;;;9.72;;
50591;SDS011;36548;50.506;30.834;2023-07-31T07:22:39;10.30;;;9.25;;
50591;SDS011;36548;50.506;30.834;2023-07-31T07:23:56;9.92;;;9.02;;
50591;SDS011;36548;50.506;30.834;2023-07-31T07:25:08;9.23;;;8.45;;
50591;SDS011;36548;50.506;30.834;2023-07-31T07:26:24;9.80;;;8.78;;
50591;SDS011;36548;50.506;30.834;2023-07-31T07:27:35;9.22;;;8.42;;
50591;SDS011;36548;50.506;30.834;2023-07-31T07:28:45;9.45;;;8.65;;
50591;SDS011;36548;50.506;30.834;2023-07-31T07:30:01;8.63;;;7.85;;
50591;SDS011;36548;50.506;30.834;2023-07-31T07:31:10;11.10;;;8.08;;
50591;SDS011;36548;50.506;30.834;2023-07-31T07:32:25;9.05;;;8.25;;
50591;SDS011;36548;50.506;30.834;2023-07-31T07:33:36;8.58;;;7.88;;
50591;SDS011;36548;50.506;30.834;2023-07-31T07:34:45;10.43;;;9.50;;
50591;SDS011;36548;50.506;30.834;2023-07-31T07:36:01;9.58;;;8.78;;
50591;SDS011;36548;50.506;30.834;2023-07-31T07:37:11;10.35;;;9.45;;
50591;SDS011;36548;50.506;30.834;2023-07-31T07:38:21;11.10;;;10.17;;
50591;SDS011;36548;50.506;30.834;2023-07-31T07:39:36;10.85;;;10.03;;
50591;SDS011;36548;50.506;30.834;2023-07-31T07:40:46;12.10;;;10.80;;
50591;SDS011;36548;50.506;30.834;2023-07-31T07:42:04;10.97;;;9.98;;
50591;SDS011;36548;50.506;30.834;2023-07-31T07:43:13;12.30;;;11.05;;
50591;SDS011;36548;50.506;30.834;2023-07-31T07:44:48;11.95;;;10.93;;
50591;SDS011;36548;50.506;30.834;2023-07-31T07:45:58;12.73;;;11.73;;
50591;SDS011;36548;50.506;30.834;2023-07-31T07:47:14;12.44;;;11.28;;
50591;SDS011;36548;50.506;30.834;2023-07-31T07:48:23;11.50;;;10.30;;
50591;SDS011;36548;50.506;30.834;2023-07-31T07:49:40;10.25;;;9.07;;
50591;SDS011;36548;50.506;30.834;2023-07-31T07:50:49;9.97;;;8.98;;
50591;SDS011;36548;50.506;30.834;2023-07-31T07:52:04;9.94;;;9.06;;
50591;SDS011;36548;50.506;30.834;2023-07-31T07:53:14;10.45;;;9.45;;
50591;SDS011;36548;50.506;30.834;2023-07-31T07:54:32;8.92;;;8.12;;
50591;SDS011;36548;50.506;30.834;2023-07-31T07:55:47;10.62;;;8.52;;
50591;SDS011;36548;50.506;30.834;2023-07-31T07:56:57;10.35;;;8.98;;
50591;SDS011;36548;50.506;30.834;2023-07-31T07:58:12;10.23;;;9.33;;
50591;SDS011;36548;50.506;30.834;2023-07-31T07:59:23;11.40;;;9.85;;
50591;SDS011;36548;50.506;30.834;2023-07-31T08:00:34;11.25;;;10.08;;
50591;SDS011;36548;50.506;30.834;2023-07-31T08:01:49;11.83;;;10.83;;
50591;SDS011;36548;50.506;30.834;2023-07-31T08:02:58;11.72;;;10.62;;
50591;SDS011;36548;50.506;30.834;2023-07-31T08:04:13;11.30;;;10.35;;
50591;SDS011;36548;50.506;30.834;2023-07-31T08:05:22;12.30;;;11.15;;
50591;SDS011;36548;50.506;30.834;2023-07-31T08:06:38;11.78;;;10.68;;
50591;SDS011;36548;50.506;30.834;2023-07-31T08:07:48;12.30;;;11.05;;
50591;SDS011;36548;50.506;30.834;2023-07-31T08:09:25;12.27;;;11.25;;
50591;SDS011;36548;50.506;30.834;2023-07-31T08:10:35;12.35;;;11.35;;
50591;SDS011;36548;50.506;30.834;2023-07-31T08:11:51;12.60;;;11.45;;
50591;SDS011;36548;50.506;30.834;2023-07-31T08:13:00;12.78;;;11.65;;
50591;SDS011;36548;50.506;30.834;2023-07-31T08:14:15;13.28;;;11.98;;
50591;SDS011;36548;50.506;30.834;2023-07-31T08:15:25;12.95;;;11.80;;
50591;SDS011;36548;50.506;30.834;2023-07-31T08:16:41;13.15;;;11.82;;
50591;SDS011;36548;50.506;30.834;2023-07-31T08:17:51;13.40;;;12.15;;
50591;SDS011;36548;50.506;30.834;2023-07-31T08:19:07;13.08;;;11.95;;
50591;SDS011;36548;50.506;30.834;2023-07-31T08:20:17;13.90;;;12.60;;
50591;SDS011;36548;50.506;30.834;2023-07-31T08:21:33;13.25;;;11.97;;